sensor_id;sensor_type;location;lat;lon;timestamp;pressure;altitude;pressure_sealevel;temperature;humidity
7940;BME280;4015;48.888;9.226;2023-03-16T00:02:15;155535.16;;;1.11;93.27
7940;BME280;4015;48.888;9.226;2023-03-16T00:04:40;155532.63;;;1.10;93.69
7940;BME280;4015;48.888;9.226;2023-03-16T00:07:08;155528.84;;;1.08;93.79
7940;BME280;4015;48.888;9.226;2023-03-16T00:09:34;155519.94;;;1.05;94.14
7940;BME280;4015;48.888;9.226;2023-03-16T00:12:01;155517.41;;;1.04;93.91
7940;BME280;4015;48.888;9.226;2023-03-16T00:14:30;155511.06;;;1.01;93.81
7940;BME280;4015;48.888;9.226;2023-03-16T00:16:56;155531.38;;;1.10;94.28
7940;BME280;4015;48.888;9.226;2023-03-16T00:19:21;155518.66;;;1.04;94.18
7940;BME280;4015;48.888;9.226;2023-03-16T00:21:50;155516.13;;;1.03;93.80
7940;BME280;4015;48.888;9.226;2023-03-16T00:24:17;155508.50;;;1.00;93.84
7940;BME280;4015;48.888;9.226;2023-03-16T00:26:44;155518.66;;;1.04;93.88
7940;BME280;4015;48.888;9.226;2023-03-16T00:29:09;155513.59;;;1.02;93.73
7940;BME280;4015;48.888;9.226;2023-03-16T00:31:36;155517.41;;;1.04;94.11
7940;BME280;4015;48.888;9.226;2023-03-16T00:34:02;155517.41;;;1.04;93.81
7940;BME280;4015;48.888;9.226;2023-03-16T00:36:27;155500.91;;;0.97;93.65
7940;BME280;4015;48.888;9.226;2023-03-16T00:38:52;155475.50;;;0.87;93.96
7940;BME280;4015;48.888;9.226;2023-03-16T00:41:18;155508.50;;;1.00;94.11
7940;BME280;4015;48.888;9.226;2023-03-16T00:43:43;155495.84;;;0.95;93.75
7940;BME280;4015;48.888;9.226;2023-03-16T00:46:16;155504.69;;;0.99;93.10
7940;BME280;4015;48.888;9.226;2023-03-16T00:48:43;155478.09;;;0.88;93.16
7940;BME280;4015;48.888;9.226;2023-03-16T00:51:12;155445.06;;;0.75;94.18
7940;BME280;4015;48.888;9.226;2023-03-16T00:53:38;155455.22;;;0.79;94.54
7940;BME280;4015;48.888;9.226;2023-03-16T00:56:04;155479.34;;;0.89;94.37
7940;BME280;4015;48.888;9.226;2023-03-16T00:58:34;155484.41;;;0.91;94.04
7940;BME280;4015;48.888;9.226;2023-03-16T01:01:01;155484.41;;;0.91;94.06
7940;BME280;4015;48.888;9.226;2023-03-16T01:03:27;155481.88;;;0.90;94.33
7940;BME280;4015;48.888;9.226;2023-03-16T01:05:52;155472.97;;;0.86;94.61
7940;BME280;4015;48.888;9.226;2023-03-16T01:08:18;155467.91;;;0.84;93.92
7940;BME280;4015;48.888;9.226;2023-03-16T01:10:43;155471.72;;;0.86;93.62
7940;BME280;4015;48.888;9.226;2023-03-16T01:13:09;155465.38;;;0.83;93.57
7940;BME280;4015;48.888;9.226;2023-03-16T01:15:35;155464.13;;;0.83;93.92
7940;BME280;4015;48.888;9.226;2023-03-16T01:18:00;155478.09;;;0.88;93.76
7940;BME280;4015;48.888;9.226;2023-03-16T01:20:26;155488.22;;;0.92;93.24
7940;BME280;4015;48.888;9.226;2023-03-16T01:22:51;155489.47;;;0.93;92.97
7940;BME280;4015;48.888;9.226;2023-03-16T01:25:17;155476.78;;;0.88;93.27
7940;BME280;4015;48.888;9.226;2023-03-16T01:27:42;155464.13;;;0.83;93.12
7940;BME280;4015;48.888;9.226;2023-03-16T01:30:09;155462.88;;;0.82;93.40
7940;BME280;4015;48.888;9.226;2023-03-16T01:32:37;155443.78;;;0.74;93.33
7940;BME280;4015;48.888;9.226;2023-03-16T01:35:02;155424.78;;;0.67;93.59
7940;BME280;4015;48.888;9.226;2023-03-16T01:37:29;155428.56;;;0.68;93.46
7940;BME280;4015;48.888;9.226;2023-03-16T01:39:54;155422.25;;;0.66;93.98
7940;BME280;4015;48.888;9.226;2023-03-16T01:42:20;155426.03;;;0.67;93.22
7940;BME280;4015;48.888;9.226;2023-03-16T01:47:19;155427.31;;;0.68;93.71
7940;BME280;4015;48.888;9.226;2023-03-16T01:49:44;155428.56;;;0.68;93.33
7940;BME280;4015;48.888;9.226;2023-03-16T01:52:17;155433.66;;;0.70;93.51
7940;BME280;4015;48.888;9.226;2023-03-16T01:54:56;155437.47;;;0.72;93.58
7940;BME280;4015;48.888;9.226;2023-03-16T01:57:26;155446.31;;;0.75;93.28
7940;BME280;4015;48.888;9.226;2023-03-16T02:00:00;155428.56;;;0.68;93.01
7940;BME280;4015;48.888;9.226;2023-03-16T02:02:32;155409.56;;;0.61;92.66
7940;BME280;4015;48.888;9.226;2023-03-16T02:07:27;155427.31;;;0.68;92.71
7940;BME280;4015;48.888;9.226;2023-03-16T02:09:56;155409.56;;;0.61;93.16
7940;BME280;4015;48.888;9.226;2023-03-16T02:12:23;155409.56;;;0.61;93.45
7940;BME280;4015;48.888;9.226;2023-03-16T02:14:49;155371.50;;;0.45;93.93
7940;BME280;4015;48.888;9.226;2023-03-16T02:17:18;155320.75;;;0.25;95.54
7940;BME280;4015;48.888;9.226;2023-03-16T02:22:17;155400.69;;;0.57;95.15
7940;BME280;4015;48.888;9.226;2023-03-16T02:24:43;155385.47;;;0.51;94.83
7940;BME280;4015;48.888;9.226;2023-03-16T02:27:12;155367.66;;;0.44;95.50
7940;BME280;4015;48.888;9.226;2023-03-16T02:29:57;155366.41;;;0.43;95.40
7940;BME280;4015;48.888;9.226;2023-03-16T02:32:27;155386.75;;;0.51;95.46
7940;BME280;4015;48.888;9.226;2023-03-16T02:34:54;155385.47;;;0.51;95.14
7940;BME280;4015;48.888;9.226;2023-03-16T02:37:20;155353.75;;;0.38;94.84
7940;BME280;4015;48.888;9.226;2023-03-16T02:39:46;155362.63;;;0.42;95.61
7940;BME280;4015;48.888;9.226;2023-03-16T02:42:17;155352.44;;;0.38;96.17
7940;BME280;4015;48.888;9.226;2023-03-16T02:44:46;155330.91;;;0.29;96.81
7940;BME280;4015;48.888;9.226;2023-03-16T02:47:23;155353.75;;;0.38;96.05
7940;BME280;4015;48.888;9.226;2023-03-16T02:49:51;155380.38;;;0.49;95.24
7940;BME280;4015;48.888;9.226;2023-03-16T02:52:16;155379.09;;;0.48;93.95
7940;BME280;4015;48.888;9.226;2023-03-16T02:54:41;155319.47;;;0.24;94.87
7940;BME280;4015;48.888;9.226;2023-03-16T02:57:07;155287.78;;;0.12;96.98
7940;BME280;4015;48.888;9.226;2023-03-16T02:59:33;155280.19;;;0.09;97.25
7940;BME280;4015;48.888;9.226;2023-03-16T03:01:58;155245.97;;;-0.05;97.76
7940;BME280;4015;48.888;9.226;2023-03-16T03:04:23;155226.91;;;-0.13;98.19
7940;BME280;4015;48.888;9.226;2023-03-16T03:06:50;155219.31;;;-0.16;98.77
7940;BME280;4015;48.888;9.226;2023-03-16T03:09:16;155233.28;;;-0.10;98.70
7940;BME280;4015;48.888;9.226;2023-03-16T03:11:42;155233.28;;;-0.10;98.81
7940;BME280;4015;48.888;9.226;2023-03-16T03:14:08;155292.88;;;0.14;98.28
7940;BME280;4015;48.888;9.226;2023-03-16T03:16:34;155296.69;;;0.15;97.13
7940;BME280;4015;48.888;9.226;2023-03-16T03:18:59;155299.22;;;0.16;97.12
7940;BME280;4015;48.888;9.226;2023-03-16T03:21:24;155314.41;;;0.22;96.48
7940;BME280;4015;48.888;9.226;2023-03-16T03:23:50;155325.84;;;0.27;95.64
7940;BME280;4015;48.888;9.226;2023-03-16T03:26:16;155327.13;;;0.28;95.49
7940;BME280;4015;48.888;9.226;2023-03-16T03:28:42;155320.75;;;0.25;95.40
7940;BME280;4015;48.888;9.226;2023-03-16T03:31:13;155325.84;;;0.27;95.02
7940;BME280;4015;48.888;9.226;2023-03-16T03:33:39;155338.53;;;0.32;95.41
7940;BME280;4015;48.888;9.226;2023-03-16T03:36:05;155334.69;;;0.31;95.20
7940;BME280;4015;48.888;9.226;2023-03-16T03:38:30;155324.59;;;0.26;94.74
7940;BME280;4015;48.888;9.226;2023-03-16T03:40:56;155332.19;;;0.30;94.47
7940;BME280;4015;48.888;9.226;2023-03-16T03:43:24;155337.28;;;0.32;94.80
7940;BME280;4015;48.888;9.226;2023-03-16T03:45:54;155330.91;;;0.29;95.09
7940;BME280;4015;48.888;9.226;2023-03-16T03:48:19;155338.53;;;0.32;94.76
7940;BME280;4015;48.888;9.226;2023-03-16T03:50:45;155315.69;;;0.23;94.70
7940;BME280;4015;48.888;9.226;2023-03-16T03:53:10;155319.47;;;0.24;94.63
7940;BME280;4015;48.888;9.226;2023-03-16T03:55:35;155335.97;;;0.31;94.59
7940;BME280;4015;48.888;9.226;2023-03-16T03:58:01;155334.69;;;0.31;94.24
7940;BME280;4015;48.888;9.226;2023-03-16T04:00:26;155325.84;;;0.27;93.69
7940;BME280;4015;48.888;9.226;2023-03-16T04:02:51;155310.63;;;0.21;94.47
7940;BME280;4015;48.888;9.226;2023-03-16T04:05:17;155292.88;;;0.14;94.79
7940;BME280;4015;48.888;9.226;2023-03-16T04:07:42;155314.41;;;0.22;94.66
7940;BME280;4015;48.888;9.226;2023-03-16T04:10:08;155300.47;;;0.17;94.28
7940;BME280;4015;48.888;9.226;2023-03-16T04:12:34;155292.88;;;0.14;95.18
7940;BME280;4015;48.888;9.226;2023-03-16T04:14:59;155300.47;;;0.17;95.04
7940;BME280;4015;48.888;9.226;2023-03-16T04:17:25;155282.72;;;0.10;94.74
7940;BME280;4015;48.888;9.226;2023-03-16T04:19:50;155304.25;;;0.18;93.83
7940;BME280;4015;48.888;9.226;2023-03-16T04:22:16;155304.25;;;0.18;93.47
7940;BME280;4015;48.888;9.226;2023-03-16T04:24:41;155310.63;;;0.21;93.93
7940;BME280;4015;48.888;9.226;2023-03-16T04:27:09;155313.16;;;0.22;93.42
7940;BME280;4015;48.888;9.226;2023-03-16T04:29:36;155323.31;;;0.26;94.39
7940;BME280;4015;48.888;9.226;2023-03-16T04:32:04;155324.59;;;0.26;94.16
7940;BME280;4015;48.888;9.226;2023-03-16T04:34:29;155323.31;;;0.26;94.19
7940;BME280;4015;48.888;9.226;2023-03-16T04:36:55;155303.00;;;0.18;93.96
7940;BME280;4015;48.888;9.226;2023-03-16T04:39:21;155327.13;;;0.28;93.71
7940;BME280;4015;48.888;9.226;2023-03-16T04:41:46;155305.53;;;0.19;93.25
7940;BME280;4015;48.888;9.226;2023-03-16T04:44:12;155303.00;;;0.18;93.25
7940;BME280;4015;48.888;9.226;2023-03-16T04:46:37;155308.09;;;0.20;92.87
7940;BME280;4015;48.888;9.226;2023-03-16T04:49:03;155297.94;;;0.16;93.33
7940;BME280;4015;48.888;9.226;2023-03-16T04:51:28;155304.25;;;0.18;93.50
7940;BME280;4015;48.888;9.226;2023-03-16T04:53:54;155285.25;;;0.11;93.53
7940;BME280;4015;48.888;9.226;2023-03-16T04:56:20;155286.50;;;0.11;93.80
7940;BME280;4015;48.888;9.226;2023-03-16T04:58:46;155291.63;;;0.13;93.93
7940;BME280;4015;48.888;9.226;2023-03-16T05:01:12;155303.00;;;0.18;93.81
7940;BME280;4015;48.888;9.226;2023-03-16T05:03:38;155324.59;;;0.26;93.38
7940;BME280;4015;48.888;9.226;2023-03-16T05:06:03;155322.06;;;0.25;93.54
7940;BME280;4015;48.888;9.226;2023-03-16T05:08:29;155313.16;;;0.22;93.15
7940;BME280;4015;48.888;9.226;2023-03-16T05:10:56;155303.00;;;0.18;93.60
7940;BME280;4015;48.888;9.226;2023-03-16T05:13:21;155327.13;;;0.28;93.09
7940;BME280;4015;48.888;9.226;2023-03-16T05:15:46;155297.94;;;0.16;92.83
7940;BME280;4015;48.888;9.226;2023-03-16T05:18:12;155313.16;;;0.22;93.38
7940;BME280;4015;48.888;9.226;2023-03-16T05:20:37;155315.69;;;0.23;92.62
7940;BME280;4015;48.888;9.226;2023-03-16T05:23:03;155299.22;;;0.16;92.82
7940;BME280;4015;48.888;9.226;2023-03-16T05:25:28;155282.72;;;0.10;93.07
7940;BME280;4015;48.888;9.226;2023-03-16T05:27:53;155287.78;;;0.12;94.06
7940;BME280;4015;48.888;9.226;2023-03-16T05:30:19;155301.72;;;0.17;94.05
7940;BME280;4015;48.888;9.226;2023-03-16T05:32:45;155314.41;;;0.22;93.23
7940;BME280;4015;48.888;9.226;2023-03-16T05:35:11;155309.38;;;0.20;93.03
7940;BME280;4015;48.888;9.226;2023-03-16T05:37:41;155332.19;;;0.30;92.92
7940;BME280;4015;48.888;9.226;2023-03-16T05:40:10;155349.91;;;0.37;92.64
7940;BME280;4015;48.888;9.226;2023-03-16T05:42:41;155333.44;;;0.30;92.60
7940;BME280;4015;48.888;9.226;2023-03-16T05:45:08;155330.91;;;0.29;93.58
7940;BME280;4015;48.888;9.226;2023-03-16T05:47:33;155337.28;;;0.32;93.42
7940;BME280;4015;48.888;9.226;2023-03-16T05:50:00;155366.41;;;0.43;93.22
7940;BME280;4015;48.888;9.226;2023-03-16T05:52:25;155379.09;;;0.48;93.03
7940;BME280;4015;48.888;9.226;2023-03-16T05:54:51;155377.84;;;0.48;92.30
7940;BME280;4015;48.888;9.226;2023-03-16T05:57:16;155394.31;;;0.54;92.39
7940;BME280;4015;48.888;9.226;2023-03-16T05:59:41;155395.59;;;0.55;92.73
7940;BME280;4015;48.888;9.226;2023-03-16T06:02:07;155394.31;;;0.54;92.54
7940;BME280;4015;48.888;9.226;2023-03-16T06:04:35;155420.97;;;0.65;92.80
7940;BME280;4015;48.888;9.226;2023-03-16T06:07:00;155456.50;;;0.79;92.64
7940;BME280;4015;48.888;9.226;2023-03-16T06:09:26;155486.94;;;0.92;91.90
7940;BME280;4015;48.888;9.226;2023-03-16T06:11:51;155502.16;;;0.98;91.82
7940;BME280;4015;48.888;9.226;2023-03-16T06:14:17;155530.09;;;1.09;91.89
7940;BME280;4015;48.888;9.226;2023-03-16T06:16:42;155532.63;;;1.10;91.08
7940;BME280;4015;48.888;9.226;2023-03-16T06:19:08;155583.38;;;1.30;90.82
7940;BME280;4015;48.888;9.226;2023-03-16T06:21:33;155575.78;;;1.27;90.12
7940;BME280;4015;48.888;9.226;2023-03-16T06:23:58;155594.81;;;1.35;90.31
7940;BME280;4015;48.888;9.226;2023-03-16T06:26:24;155721.75;;;1.86;90.73
7940;BME280;4015;48.888;9.226;2023-03-16T06:28:49;155888.16;;;2.53;87.96
7940;BME280;4015;48.888;9.226;2023-03-16T06:31:15;156057.13;;;3.20;84.17
7940;BME280;4015;48.888;9.226;2023-03-16T06:33:40;156118.13;;;3.45;81.32
7940;BME280;4015;48.888;9.226;2023-03-16T06:36:06;156166.44;;;3.64;80.30
7940;BME280;4015;48.888;9.226;2023-03-16T06:38:31;156320.31;;;4.26;79.44
7940;BME280;4015;48.888;9.226;2023-03-16T06:40:57;156461.53;;;4.82;77.42
7940;BME280;4015;48.888;9.226;2023-03-16T06:43:23;156647.38;;;5.57;74.76
7940;BME280;4015;48.888;9.226;2023-03-16T06:45:48;156765.84;;;6.04;72.75
7940;BME280;4015;48.888;9.226;2023-03-16T06:48:13;156919.94;;;6.66;70.65
7940;BME280;4015;48.888;9.226;2023-03-16T06:50:39;156884.28;;;6.52;70.89
7940;BME280;4015;48.888;9.226;2023-03-16T06:53:04;156867.72;;;6.45;70.98
7940;BME280;4015;48.888;9.226;2023-03-16T06:55:30;156912.31;;;6.63;70.38
7940;BME280;4015;48.888;9.226;2023-03-16T06:57:55;156876.66;;;6.48;70.14
7940;BME280;4015;48.888;9.226;2023-03-16T07:00:21;156712.28;;;5.83;72.20
7940;BME280;4015;48.888;9.226;2023-03-16T07:02:46;156564.63;;;5.24;74.68
7940;BME280;4015;48.888;9.226;2023-03-16T07:05:11;156621.88;;;5.47;76.39
7940;BME280;4015;48.888;9.226;2023-03-16T07:07:39;156913.59;;;6.63;72.72
7940;BME280;4015;48.888;9.226;2023-03-16T07:10:04;157086.91;;;7.33;70.86
7940;BME280;4015;48.888;9.226;2023-03-16T07:12:30;157181.25;;;7.70;69.06
7940;BME280;4015;48.888;9.226;2023-03-16T07:14:55;157285.81;;;8.12;67.35
7940;BME280;4015;48.888;9.226;2023-03-16T07:17:20;157284.53;;;8.11;67.73
7940;BME280;4015;48.888;9.226;2023-03-16T07:19:46;157251.38;;;7.98;67.90
7940;BME280;4015;48.888;9.226;2023-03-16T07:22:11;157364.94;;;8.44;66.43
7940;BME280;4015;48.888;9.226;2023-03-16T07:24:36;157415.97;;;8.64;65.85
7940;BME280;4015;48.888;9.226;2023-03-16T07:27:02;157569.09;;;9.25;64.04
7940;BME280;4015;48.888;9.226;2023-03-16T07:29:27;157700.56;;;9.78;62.89
7940;BME280;4015;48.888;9.226;2023-03-16T07:31:53;157871.72;;;10.46;61.48
7940;BME280;4015;48.888;9.226;2023-03-16T07:34:19;157933.03;;;10.70;61.25
7940;BME280;4015;48.888;9.226;2023-03-16T07:36:45;158409.88;;;12.60;55.17
7940;BME280;4015;48.888;9.226;2023-03-16T07:39:13;158261.56;;;12.01;56.34
7940;BME280;4015;48.888;9.226;2023-03-16T07:41:38;158189.88;;;11.73;57.38
7940;BME280;4015;48.888;9.226;2023-03-16T07:44:04;158104.28;;;11.39;59.57
7940;BME280;4015;48.888;9.226;2023-03-16T07:46:29;157970.06;;;10.85;60.04
7940;BME280;4015;48.888;9.226;2023-03-16T07:48:56;158046.75;;;11.16;59.82
7940;BME280;4015;48.888;9.226;2023-03-16T07:51:22;158188.63;;;11.72;60.07
7940;BME280;4015;48.888;9.226;2023-03-16T07:53:47;158106.81;;;11.40;59.52
7940;BME280;4015;48.888;9.226;2023-03-16T07:56:12;158288.38;;;12.12;58.65
7940;BME280;4015;48.888;9.226;2023-03-16T07:58:38;158400.91;;;12.57;56.18
7940;BME280;4015;48.888;9.226;2023-03-16T08:01:03;158357.44;;;12.39;56.28
7940;BME280;4015;48.888;9.226;2023-03-16T08:03:29;158336.94;;;12.31;56.80
7940;BME280;4015;48.888;9.226;2023-03-16T08:05:56;158266.66;;;12.03;57.44
7940;BME280;4015;48.888;9.226;2023-03-16T08:08:21;158627.41;;;13.47;55.25
7940;BME280;4015;48.888;9.226;2023-03-16T08:10:48;158589.00;;;13.32;55.53
7940;BME280;4015;48.888;9.226;2023-03-16T08:13:16;158756.69;;;13.98;54.11
7940;BME280;4015;48.888;9.226;2023-03-16T08:15:45;158946.22;;;14.74;53.27
7940;BME280;4015;48.888;9.226;2023-03-16T08:18:10;158895.00;;;14.53;51.65
7940;BME280;4015;48.888;9.226;2023-03-16T08:20:36;159105.06;;;15.37;49.78
7940;BME280;4015;48.888;9.226;2023-03-16T08:23:01;159194.81;;;15.73;49.12
7940;BME280;4015;48.888;9.226;2023-03-16T08:25:27;159108.88;;;15.38;49.17
7940;BME280;4015;48.888;9.226;2023-03-16T08:27:52;159142.19;;;15.52;50.11
7940;BME280;4015;48.888;9.226;2023-03-16T08:30:18;158987.22;;;14.90;52.21
7940;BME280;4015;48.888;9.226;2023-03-16T08:32:43;159044.84;;;15.13;50.51
7940;BME280;4015;48.888;9.226;2023-03-16T08:35:11;159443.50;;;16.71;48.51
7940;BME280;4015;48.888;9.226;2023-03-16T08:37:41;159546.09;;;17.12;45.63
7940;BME280;4015;48.888;9.226;2023-03-16T08:40:09;159281.94;;;16.07;46.81
7940;BME280;4015;48.888;9.226;2023-03-16T08:42:38;159507.59;;;16.97;47.17
7940;BME280;4015;48.888;9.226;2023-03-16T08:45:05;159649.97;;;17.53;46.14
7940;BME280;4015;48.888;9.226;2023-03-16T08:47:36;159620.50;;;17.42;44.33
7940;BME280;4015;48.888;9.226;2023-03-16T08:50:03;159710.31;;;17.77;45.04
7940;BME280;4015;48.888;9.226;2023-03-16T08:52:30;159932.31;;;18.66;43.92
7940;BME280;4015;48.888;9.226;2023-03-16T08:54:56;159941.38;;;18.69;43.85
7940;BME280;4015;48.888;9.226;2023-03-16T08:57:21;159805.28;;;18.15;45.87
7940;BME280;4015;48.888;9.226;2023-03-16T08:59:46;159922.09;;;18.62;44.04
7940;BME280;4015;48.888;9.226;2023-03-16T09:02:12;159633.28;;;17.47;46.38
7940;BME280;4015;48.888;9.226;2023-03-16T09:04:38;159582.00;;;17.26;47.08
7940;BME280;4015;48.888;9.226;2023-03-16T09:07:04;159805.28;;;18.15;44.31
7940;BME280;4015;48.888;9.226;2023-03-16T09:09:29;159802.72;;;18.14;44.56
7940;BME280;4015;48.888;9.226;2023-03-16T09:11:55;160171.22;;;19.60;41.17
7940;BME280;4015;48.888;9.226;2023-03-16T09:14:21;160062.06;;;19.17;41.62
7940;BME280;4015;48.888;9.226;2023-03-16T09:16:47;159852.75;;;18.34;44.68
7940;BME280;4015;48.888;9.226;2023-03-16T09:19:13;159995.28;;;18.91;44.19
7940;BME280;4015;48.888;9.226;2023-03-16T09:21:38;160094.19;;;19.30;42.17
7940;BME280;4015;48.888;9.226;2023-03-16T09:24:04;159938.81;;;18.68;44.71
7940;BME280;4015;48.888;9.226;2023-03-16T09:26:29;160128.84;;;19.44;41.55
7940;BME280;4015;48.888;9.226;2023-03-16T09:28:54;159770.63;;;18.01;43.96
7940;BME280;4015;48.888;9.226;2023-03-16T09:31:20;159667.97;;;17.61;43.64
7940;BME280;4015;48.888;9.226;2023-03-16T09:33:46;159666.69;;;17.60;44.69
7940;BME280;4015;48.888;9.226;2023-03-16T09:36:12;159222.97;;;15.84;46.90
7940;BME280;4015;48.888;9.226;2023-03-16T09:38:39;159048.66;;;15.15;51.26
7940;BME280;4015;48.888;9.226;2023-03-16T09:41:21;159205.03;;;15.77;47.20
7940;BME280;4015;48.888;9.226;2023-03-16T09:46:25;159426.78;;;16.65;48.02
7940;BME280;4015;48.888;9.226;2023-03-16T09:48:54;159588.44;;;17.29;48.88
7940;BME280;4015;48.888;9.226;2023-03-16T09:54:37;160254.75;;;19.93;41.87
7940;BME280;4015;48.888;9.226;2023-03-16T09:57:41;160059.47;;;19.16;43.06
7940;BME280;4015;48.888;9.226;2023-03-16T10:00:29;160069.75;;;19.20;42.83
7940;BME280;4015;48.888;9.226;2023-03-16T10:03:17;160081.31;;;19.25;42.24
7940;BME280;4015;48.888;9.226;2023-03-16T10:05:54;160072.31;;;19.21;43.14
7940;BME280;4015;48.888;9.226;2023-03-16T10:08:29;160036.38;;;19.07;41.74
7940;BME280;4015;48.888;9.226;2023-03-16T10:13:53;159911.81;;;18.57;42.51
7940;BME280;4015;48.888;9.226;2023-03-16T10:16:21;160046.66;;;19.11;40.89
7940;BME280;4015;48.888;9.226;2023-03-16T10:18:56;160027.38;;;19.03;42.15
7940;BME280;4015;48.888;9.226;2023-03-16T10:21:24;159897.69;;;18.52;44.00
7940;BME280;4015;48.888;9.226;2023-03-16T10:23:51;160123.66;;;19.41;41.15
7940;BME280;4015;48.888;9.226;2023-03-16T10:26:22;160118.53;;;19.39;41.64
7940;BME280;4015;48.888;9.226;2023-03-16T10:28:49;159697.47;;;17.72;43.07
7940;BME280;4015;48.888;9.226;2023-03-16T10:31:16;159766.81;;;18.00;44.15
7940;BME280;4015;48.888;9.226;2023-03-16T10:33:44;159970.91;;;18.81;41.20
7940;BME280;4015;48.888;9.226;2023-03-16T10:43:52;160324.09;;;20.21;40.06
7940;BME280;4015;48.888;9.226;2023-03-16T10:46:20;160385.81;;;20.45;42.20
7940;BME280;4015;48.888;9.226;2023-03-16T10:48:56;160660.88;;;21.54;37.71
7940;BME280;4015;48.888;9.226;2023-03-16T10:51:29;160469.31;;;20.79;37.16
7940;BME280;4015;48.888;9.226;2023-03-16T10:54:14;160659.59;;;21.54;38.74
7940;BME280;4015;48.888;9.226;2023-03-16T10:56:39;160853.81;;;22.31;36.08
7940;BME280;4015;48.888;9.226;2023-03-16T10:59:31;160487.31;;;20.86;39.26
7940;BME280;4015;48.888;9.226;2023-03-16T11:02:00;160651.91;;;21.51;37.01
7940;BME280;4015;48.888;9.226;2023-03-16T11:04:30;160797.19;;;22.08;35.69
7940;BME280;4015;48.888;9.226;2023-03-16T11:06:57;160802.38;;;22.11;35.38
7940;BME280;4015;48.888;9.226;2023-03-16T11:09:32;161084.16;;;23.22;36.67
7940;BME280;4015;48.888;9.226;2023-03-16T11:11:59;161042.97;;;23.06;34.57
7940;BME280;4015;48.888;9.226;2023-03-16T11:14:27;160897.56;;;22.48;36.03
7940;BME280;4015;48.888;9.226;2023-03-16T11:19:32;161406.00;;;24.49;33.51
7940;BME280;4015;48.888;9.226;2023-03-16T11:22:04;161407.28;;;24.50;35.28
7940;BME280;4015;48.888;9.226;2023-03-16T11:27:55;161067.41;;;23.15;34.76
7940;BME280;4015;48.888;9.226;2023-03-16T11:30:26;161160.09;;;23.52;35.32
7940;BME280;4015;48.888;9.226;2023-03-16T11:32:53;160885.97;;;22.44;35.79
7940;BME280;4015;48.888;9.226;2023-03-16T11:35:23;161166.50;;;23.55;34.43
7940;BME280;4015;48.888;9.226;2023-03-16T11:46:14;161269.53;;;23.95;32.36
7940;BME280;4015;48.888;9.226;2023-03-16T11:51:47;161453.66;;;24.68;32.91
7940;BME280;4015;48.888;9.226;2023-03-16T11:59:57;161147.19;;;23.47;33.85
7940;BME280;4015;48.888;9.226;2023-03-16T12:02:52;161327.44;;;24.18;32.96
7940;BME280;4015;48.888;9.226;2023-03-16T12:11:02;161198.72;;;23.67;34.97
7940;BME280;4015;48.888;9.226;2023-03-16T12:16:44;161300.44;;;24.08;33.14
7940;BME280;4015;48.888;9.226;2023-03-16T12:24:42;161008.22;;;22.92;34.65
7940;BME280;4015;48.888;9.226;2023-03-16T12:27:13;160929.72;;;22.61;34.30
7940;BME280;4015;48.888;9.226;2023-03-16T12:29:54;160961.88;;;22.74;34.05
7940;BME280;4015;48.888;9.226;2023-03-16T12:32:40;161044.25;;;23.06;33.72
7940;BME280;4015;48.888;9.226;2023-03-16T12:35:18;160763.78;;;21.95;33.87
7940;BME280;4015;48.888;9.226;2023-03-16T12:40:34;160437.22;;;20.66;37.08
7940;BME280;4015;48.888;9.226;2023-03-16T12:46:10;160286.88;;;20.06;38.45
7940;BME280;4015;48.888;9.226;2023-03-16T12:48:45;160518.16;;;20.98;36.71
7940;BME280;4015;48.888;9.226;2023-03-16T12:51:12;160151.94;;;19.53;36.92
7940;BME280;4015;48.888;9.226;2023-03-16T12:56:17;160676.31;;;21.61;35.54
7940;BME280;4015;48.888;9.226;2023-03-16T12:58:48;160934.88;;;22.63;34.87
7940;BME280;4015;48.888;9.226;2023-03-16T13:01:19;160717.47;;;21.77;36.79
7940;BME280;4015;48.888;9.226;2023-03-16T13:03:58;160916.84;;;22.56;34.51
7940;BME280;4015;48.888;9.226;2023-03-16T13:06:31;160901.41;;;22.50;33.15
7940;BME280;4015;48.888;9.226;2023-03-16T13:08:58;160820.38;;;22.18;33.89
7940;BME280;4015;48.888;9.226;2023-03-16T13:11:26;161063.56;;;23.14;33.61
7940;BME280;4015;48.888;9.226;2023-03-16T13:14:05;161010.78;;;22.93;32.89
7940;BME280;4015;48.888;9.226;2023-03-16T13:16:38;161133.03;;;23.41;33.91
7940;BME280;4015;48.888;9.226;2023-03-16T13:19:27;161178.09;;;23.59;33.12
7940;BME280;4015;48.888;9.226;2023-03-16T13:27:47;160973.44;;;22.78;33.10
7940;BME280;4015;48.888;9.226;2023-03-16T13:30:20;160969.59;;;22.77;33.58
7940;BME280;4015;48.888;9.226;2023-03-16T13:32:47;160849.97;;;22.29;34.22
7940;BME280;4015;48.888;9.226;2023-03-16T13:35:14;160606.91;;;21.33;34.99
7940;BME280;4015;48.888;9.226;2023-03-16T13:37:41;160390.94;;;20.47;35.77
7940;BME280;4015;48.888;9.226;2023-03-16T13:40:25;160351.09;;;20.32;35.17
7940;BME280;4015;48.888;9.226;2023-03-16T13:42:53;160425.63;;;20.61;36.79
7940;BME280;4015;48.888;9.226;2023-03-16T13:45:23;160266.28;;;19.98;36.99
7940;BME280;4015;48.888;9.226;2023-03-16T13:47:52;160194.38;;;19.70;37.74
7940;BME280;4015;48.888;9.226;2023-03-16T13:50:18;160132.69;;;19.45;37.25
7940;BME280;4015;48.888;9.226;2023-03-16T13:53:09;160085.16;;;19.26;37.69
7940;BME280;4015;48.888;9.226;2023-03-16T13:55:37;160014.56;;;18.98;38.34
7940;BME280;4015;48.888;9.226;2023-03-16T13:58:03;159667.97;;;17.61;38.69
7940;BME280;4015;48.888;9.226;2023-03-16T14:00:34;159665.38;;;17.60;40.80
7940;BME280;4015;48.888;9.226;2023-03-16T14:03:14;159811.72;;;18.18;39.42
7940;BME280;4015;48.888;9.226;2023-03-16T14:05:40;159919.53;;;18.60;39.11
7940;BME280;4015;48.888;9.226;2023-03-16T14:08:22;160212.34;;;19.77;38.56
7940;BME280;4015;48.888;9.226;2023-03-16T14:10:49;160537.44;;;21.06;37.77
7940;BME280;4015;48.888;9.226;2023-03-16T14:13:22;160687.91;;;21.65;36.24
7940;BME280;4015;48.888;9.226;2023-03-16T14:15:50;160846.13;;;22.28;33.89
7940;BME280;4015;48.888;9.226;2023-03-16T14:18:18;160717.47;;;21.77;34.43
7940;BME280;4015;48.888;9.226;2023-03-16T14:20:50;160614.59;;;21.36;34.90
7940;BME280;4015;48.888;9.226;2023-03-16T14:23:22;160416.66;;;20.58;35.75
7940;BME280;4015;48.888;9.226;2023-03-16T14:25:49;160639.06;;;21.46;34.85
7940;BME280;4015;48.888;9.226;2023-03-16T14:28:16;160471.88;;;20.80;34.29
7940;BME280;4015;48.888;9.226;2023-03-16T14:30:51;160294.53;;;20.09;36.00
7940;BME280;4015;48.888;9.226;2023-03-16T14:33:29;160464.19;;;20.77;36.18
7940;BME280;4015;48.888;9.226;2023-03-16T14:35:56;160284.31;;;20.05;36.23
7940;BME280;4015;48.888;9.226;2023-03-16T14:38:29;159969.63;;;18.80;38.42